| Date | Time | Temp. (oF) | Dew Point (oF) | Rel. Hum. (%) | Press. (in.) | Wind Dir. | Wind Speed (mph) | Hourly Rainfall (in.) |
|
|---|---|---|---|---|---|---|---|---|---|
| 1 | 08/06 | 00:00 | 77 | 72 | 85 | 29.89 | SW | 4 | 0.00 |
| 2 | 08/05 | 23:00 | 78 | 72 | 82 | 29.90 | WSW | 2 | 0.00 |
| 3 | 08/05 | 22:00 | 80 | 71 | 76 | 29.91 | SW | 5 | 0.00 |
| 4 | 08/05 | 21:00 | 84 | 71 | 67 | 29.91 | NW | 3 | 0.00 |
| 5 | 08/05 | 20:00 | 86 | 70 | 61 | 29.89 | WSW | 1 | 0.00 |
| 6 | 08/05 | 19:00 | 89 | 72 | 59 | 29.89 | SW | 4 | 0.00 |
| 7 | 08/05 | 18:00 | 90 | 69 | 51 | 29.89 | NW | 1 | 0.00 |
| 8 | 08/05 | 17:00 | 90 | 73 | 59 | 29.90 | SW | 3 | 0.00 |
| 9 | 08/05 | 16:00 | 88 | 73 | 63 | 29.92 | SW | 2 | 0.00 |
| 10 | 08/05 | 15:00 | 88 | 74 | 64 | 29.94 | SW | 5 | 0.00 |
| 11 | 08/05 | 14:00 | 87 | 73 | 64 | 29.96 | SSW | 3 | 0.00 |
| 12 | 08/05 | 13:00 | 89 | 73 | 61 | 30.00 | WNW | 6 | 0.00 |
| 13 | 08/05 | 12:00 | 85 | 75 | 73 | 30.01 | WNW | 3 | 0.00 |
| 14 | 08/05 | 11:00 | 80 | 75 | 85 | 30.03 | W | 3 | 0.00 |
| 15 | 08/05 | 10:00 | 78 | 74 | 89 | 30.04 | NNW | 2 | 0.01 |
| 16 | 08/05 | 09:00 | 79 | 73 | 83 | 30.04 | W | 3 | 0.00 |
| 17 | 08/05 | 08:00 | 76 | 73 | 91 | 30.04 | SSE | 1 | 0.00 |
| 18 | 08/05 | 07:00 | 73 | 71 | 94 | 30.04 | SW | 0 | 0.00 |
| 19 | 08/05 | 06:00 | 74 | 71 | 92 | 30.04 | SW | 0 | 0.00 |
| 20 | 08/05 | 05:00 | 75 | 71 | 89 | 30.03 | SW | 0 | 0.00 |
| 21 | 08/05 | 04:00 | 76 | 71 | 85 | 30.04 | SW | 0 | 0.00 |
| 22 | 08/05 | 03:00 | 78 | 71 | 81 | 30.05 | SW | 1 | 0.00 |
| 23 | 08/05 | 02:00 | 79 | 71 | 79 | 30.07 | SW | 1 | 0.00 |
| 24 | 08/05 | 01:00 | 80 | 71 | 75 | 30.08 | S | 4 | 0.00 |